createdAt,value
2022-12-26T06:31:39.980Z,6.44
2022-12-26T06:32:10.731Z,6.48
2022-12-26T06:32:41.499Z,6.46
2022-12-26T06:33:12.249Z,6.48
2022-12-26T06:33:43.049Z,6.48
2022-12-26T06:34:13.953Z,6.51
2022-12-26T06:34:44.709Z,6.49
2022-12-26T06:35:15.456Z,6.49
2022-12-26T06:35:46.200Z,6.49
2022-12-26T06:36:16.948Z,6.51
2022-12-26T06:36:47.688Z,6.49
2022-12-26T06:37:18.435Z,6.51
2022-12-26T06:37:49.194Z,6.52
2022-12-26T06:38:19.941Z,6.51
2022-12-26T06:38:50.696Z,6.51
2022-12-26T06:39:21.441Z,6.51
2022-12-26T06:39:52.213Z,6.52
2022-12-26T06:40:22.968Z,6.52
2022-12-26T06:40:53.947Z,6.51
2022-12-26T06:41:24.920Z,6.51
2022-12-26T06:41:55.828Z,6.54
2022-12-26T06:42:26.877Z,6.52
2022-12-26T06:42:57.692Z,6.52
2022-12-26T06:43:28.469Z,6.52
2022-12-26T06:43:59.228Z,6.52
2022-12-26T06:44:30.003Z,6.52
2022-12-26T06:45:00.779Z,6.52
2022-12-26T06:45:31.537Z,6.52
2022-12-26T06:46:02.316Z,6.54
2022-12-26T06:46:33.139Z,6.54
2022-12-26T06:47:03.972Z,6.54
2022-12-26T06:47:34.819Z,6.55
2022-12-26T06:48:05.602Z,6.55
2022-12-26T06:48:36.351Z,6.55
2022-12-26T06:49:07.108Z,6.54
2022-12-26T06:49:43.361Z,6.55
2022-12-26T06:50:08.032Z,6.55
2022-12-26T06:50:38.794Z,6.56
2022-12-26T06:51:09.567Z,6.58
2022-12-26T06:51:40.340Z,6.58
2022-12-26T06:52:11.111Z,6.56
2022-12-26T06:52:41.869Z,6.58
2022-12-26T06:53:12.631Z,6.56
2022-12-26T06:53:43.403Z,6.58
2022-12-26T06:54:14.178Z,6.58
2022-12-26T06:54:44.978Z,6.58
2022-12-26T06:55:15.732Z,6.58
2022-12-26T06:55:46.500Z,6.59
2022-12-26T06:56:17.271Z,6.61
2022-12-26T06:56:48.063Z,6.61
2022-12-26T06:57:18.832Z,6.59
2022-12-26T06:57:49.704Z,6.59
2022-12-26T06:58:20.469Z,6.61
2022-12-26T06:58:51.212Z,6.61
2022-12-26T06:59:21.974Z,6.61
2022-12-26T06:59:52.753Z,6.62
2022-12-26T07:00:23.528Z,6.62
2022-12-26T07:00:54.375Z,6.61
2022-12-26T07:01:25.259Z,6.64
2022-12-26T07:01:56.171Z,6.64
2022-12-26T07:02:27.015Z,6.64
2022-12-26T07:02:57.842Z,6.64
2022-12-26T07:03:28.625Z,6.62
2022-12-26T07:03:59.382Z,6.64
2022-12-26T07:04:30.143Z,6.62
2022-12-26T07:05:00.914Z,6.66
2022-12-26T07:05:31.691Z,6.64
2022-12-26T07:06:02.441Z,6.64
2022-12-26T07:06:33.207Z,6.66
2022-12-26T07:07:03.957Z,6.64
2022-12-26T07:07:34.738Z,6.64
2022-12-26T07:08:05.494Z,6.66
2022-12-26T07:08:36.263Z,6.67
2022-12-26T07:09:07.024Z,6.66
2022-12-26T07:09:37.804Z,6.67
2022-12-26T07:10:08.575Z,6.66
2022-12-26T07:10:39.342Z,6.67
2022-12-26T07:11:10.101Z,6.67
2022-12-26T07:11:40.863Z,6.66
2022-12-26T07:12:11.631Z,6.67
2022-12-26T07:12:42.398Z,6.67
2022-12-26T07:13:13.172Z,6.69
2022-12-26T07:13:43.917Z,6.69
2022-12-26T07:14:14.667Z,6.69
2022-12-26T07:14:45.439Z,6.69
2022-12-26T07:15:16.199Z,6.70
2022-12-26T07:15:46.985Z,6.69
2022-12-26T07:16:17.787Z,6.70
2022-12-26T07:16:48.583Z,6.69
2022-12-26T07:17:19.366Z,6.70
2022-12-26T07:17:50.136Z,6.70
2022-12-26T07:18:20.896Z,6.70
2022-12-26T07:18:51.656Z,6.71
2022-12-26T07:19:22.427Z,6.70
2022-12-26T07:19:53.229Z,6.71
2022-12-26T07:20:23.986Z,6.73
2022-12-26T07:20:54.755Z,6.70
2022-12-26T07:21:25.537Z,6.71
2022-12-26T07:21:56.300Z,6.73
2022-12-26T07:22:27.047Z,6.73
2022-12-26T07:22:57.819Z,6.73
2022-12-26T07:23:28.578Z,6.73
2022-12-26T07:23:59.340Z,6.74
2022-12-26T07:24:30.097Z,6.73
2022-12-26T07:25:00.883Z,6.74
2022-12-26T07:25:31.640Z,6.74
2022-12-26T07:26:02.395Z,6.74
2022-12-26T07:26:33.148Z,6.74
2022-12-26T07:27:03.923Z,6.74
2022-12-26T07:27:34.686Z,6.73
2022-12-26T07:28:06.378Z,6.73
2022-12-26T07:28:37.136Z,6.71
2022-12-26T07:29:07.915Z,6.73
2022-12-26T07:29:38.690Z,6.73
2022-12-26T07:30:09.465Z,6.73
2022-12-26T07:30:40.230Z,6.74
2022-12-26T07:31:11.221Z,6.73
2022-12-26T07:31:42.043Z,6.73
2022-12-26T07:32:12.856Z,6.74
2022-12-26T07:32:43.650Z,6.73
2022-12-26T07:33:14.401Z,6.74
2022-12-26T07:33:45.167Z,6.76
2022-12-26T07:34:15.925Z,6.74
2022-12-26T07:34:46.690Z,6.74
2022-12-26T07:35:17.492Z,6.76
2022-12-26T07:35:48.286Z,6.76
2022-12-26T07:36:19.031Z,6.76
2022-12-26T07:36:49.812Z,6.76
2022-12-26T07:37:20.569Z,6.76
2022-12-26T07:37:51.342Z,6.77
2022-12-26T07:38:22.117Z,6.77
2022-12-26T07:38:52.883Z,6.77
2022-12-26T07:39:23.632Z,6.77
2022-12-26T07:39:58.950Z,6.77
2022-12-26T07:40:27.017Z,6.77
2022-12-26T07:40:57.790Z,6.77
2022-12-26T07:41:28.554Z,6.79
2022-12-26T07:41:59.316Z,6.80
2022-12-26T07:42:30.111Z,6.81
2022-12-26T07:43:00.874Z,6.80
2022-12-26T07:43:31.679Z,6.80
2022-12-26T07:44:02.421Z,6.81
2022-12-26T07:44:33.205Z,6.80
2022-12-26T07:45:04.009Z,6.81
2022-12-26T07:45:37.047Z,6.81
2022-12-26T07:46:07.466Z,6.81
2022-12-26T07:46:38.285Z,6.84
2022-12-26T07:47:09.093Z,6.81
2022-12-26T07:47:39.874Z,6.84
2022-12-26T07:48:10.624Z,6.81
2022-12-26T07:48:41.372Z,6.84
2022-12-26T07:49:12.148Z,6.84
2022-12-26T07:49:42.921Z,6.84
2022-12-26T07:50:13.709Z,6.84
2022-12-26T07:50:44.448Z,6.85
2022-12-26T07:51:15.223Z,6.85
2022-12-26T07:51:45.979Z,6.84
2022-12-26T07:52:16.750Z,6.84
2022-12-26T07:52:47.512Z,6.85
2022-12-26T07:53:18.288Z,6.85
2022-12-26T07:53:49.046Z,6.87
2022-12-26T07:54:19.782Z,6.87
2022-12-26T07:54:50.560Z,6.87
2022-12-26T07:55:21.383Z,6.85
2022-12-26T07:55:52.135Z,6.85
2022-12-26T07:56:22.900Z,6.87
2022-12-26T07:57:03.880Z,6.88
2022-12-26T07:57:58.866Z,6.87
2022-12-26T07:58:29.639Z,6.88
2022-12-26T07:59:00.374Z,6.88
2022-12-26T07:59:31.493Z,6.88
2022-12-26T08:00:02.264Z,6.88
2022-12-26T08:00:33.035Z,6.89
2022-12-26T08:01:03.917Z,6.89
2022-12-26T08:01:34.966Z,6.89
2022-12-26T08:02:05.996Z,6.89
2022-12-26T08:02:36.981Z,6.91
2022-12-26T08:03:08.404Z,6.91
2022-12-26T08:03:39.387Z,6.89
2022-12-26T08:04:10.156Z,6.91
2022-12-26T08:04:40.905Z,6.91
2022-12-26T08:05:12.168Z,6.91
2022-12-26T08:05:42.936Z,6.92
2022-12-26T08:06:13.682Z,6.91
2022-12-26T08:06:44.438Z,6.92
2022-12-26T08:07:15.206Z,6.92
2022-12-26T08:07:45.980Z,6.94
2022-12-26T08:08:16.717Z,6.94
2022-12-26T08:08:51.017Z,6.95
2022-12-26T08:09:18.957Z,6.92
2022-12-26T08:09:49.726Z,6.94
2022-12-26T08:10:20.513Z,6.94
2022-12-26T08:10:51.301Z,6.94
2022-12-26T08:11:22.081Z,6.95
2022-12-26T08:11:52.838Z,6.97
2022-12-26T08:12:23.615Z,6.94
2022-12-26T08:12:54.383Z,6.97
2022-12-26T08:13:25.147Z,6.97
2022-12-26T08:13:55.913Z,6.95
2022-12-26T08:14:26.657Z,6.97
2022-12-26T08:14:57.447Z,6.95
2022-12-26T08:15:32.285Z,6.94
2022-12-26T08:16:00.012Z,6.94
2022-12-26T08:16:30.862Z,6.95
2022-12-26T08:17:01.712Z,6.95
2022-12-26T08:17:32.491Z,6.97
2022-12-26T08:18:03.251Z,6.97
2022-12-26T08:18:34.019Z,6.97
2022-12-26T08:19:04.768Z,6.97
2022-12-26T08:19:35.567Z,6.95
2022-12-26T08:20:06.344Z,6.95
2022-12-26T08:20:37.119Z,6.97
2022-12-26T08:21:07.899Z,6.97
2022-12-26T08:21:38.678Z,6.98
2022-12-26T08:22:09.437Z,6.98
2022-12-26T08:22:40.216Z,6.97
2022-12-26T08:23:10.969Z,6.98
2022-12-26T08:23:42.257Z,6.99
2022-12-26T08:24:13.019Z,6.99
2022-12-26T08:24:43.773Z,6.99
2022-12-26T08:25:16.808Z,6.99
2022-12-26T08:25:47.169Z,6.99
2022-12-26T08:26:17.919Z,7.02
2022-12-26T08:26:48.701Z,7.02
2022-12-26T08:27:19.461Z,7.02
2022-12-26T08:27:50.241Z,7.02
2022-12-26T08:28:21.019Z,7.03
2022-12-26T08:28:51.794Z,7.03
2022-12-26T08:29:22.553Z,7.05
2022-12-26T08:29:53.320Z,7.05
2022-12-26T08:30:24.089Z,7.05
2022-12-26T08:30:54.850Z,7.03
2022-12-26T08:31:56.346Z,7.05
2022-12-26T08:32:27.110Z,7.03
2022-12-26T08:32:57.888Z,7.06
2022-12-26T08:33:28.649Z,7.06
2022-12-26T08:33:59.420Z,7.06
2022-12-26T08:34:30.199Z,7.06
2022-12-26T08:35:01.002Z,7.06
2022-12-26T08:35:31.795Z,7.05
2022-12-26T08:36:02.542Z,7.07
2022-12-26T08:36:33.304Z,7.07
2022-12-26T08:37:04.074Z,7.07
2022-12-26T08:37:34.810Z,7.07
2022-12-26T08:38:05.707Z,7.07
2022-12-26T08:38:36.459Z,7.09
2022-12-26T08:39:07.223Z,7.07
2022-12-26T08:39:37.991Z,7.09
2022-12-26T08:40:08.759Z,7.09
2022-12-26T08:40:43.976Z,7.09
2022-12-26T08:41:12.117Z,7.09
2022-12-26T08:41:42.886Z,7.10
2022-12-26T08:42:13.651Z,7.10
2022-12-26T08:42:56.114Z,7.10
2022-12-26T08:44:02.989Z,7.10
2022-12-26T08:44:27.146Z,7.12
2022-12-26T08:44:54.888Z,7.10
2022-12-26T08:45:25.664Z,7.12
2022-12-26T08:45:56.470Z,7.12
2022-12-26T08:46:27.243Z,7.13
2022-12-26T08:46:57.993Z,7.13
2022-12-26T08:47:28.754Z,7.15
2022-12-26T08:47:59.519Z,7.15
2022-12-26T08:48:30.292Z,7.13
2022-12-26T08:49:01.042Z,7.16
2022-12-26T08:49:31.802Z,7.16
2022-12-26T08:50:02.551Z,7.16
2022-12-26T08:50:36.564Z,7.16
2022-12-26T08:51:05.933Z,7.17
2022-12-26T08:51:36.746Z,7.16
2022-12-26T08:52:07.521Z,7.16
2022-12-26T08:52:38.272Z,7.16
2022-12-26T08:53:09.036Z,7.20
2022-12-26T08:53:39.783Z,7.17
2022-12-26T08:54:10.577Z,7.20
2022-12-26T08:54:41.364Z,7.20
2022-12-26T08:55:12.133Z,7.17
2022-12-26T08:55:42.898Z,7.21
2022-12-26T08:56:13.654Z,7.21
2022-12-26T08:56:44.425Z,7.21
2022-12-26T08:57:15.173Z,7.23
2022-12-26T08:57:45.953Z,7.23
2022-12-26T08:58:16.738Z,7.23
2022-12-26T08:58:47.563Z,7.23
2022-12-26T08:59:18.376Z,7.23
2022-12-26T08:59:49.144Z,7.23
2022-12-26T09:00:19.894Z,7.23
2022-12-26T09:00:55.256Z,7.23
2022-12-26T09:01:23.480Z,7.25
2022-12-26T09:01:54.432Z,7.24
2022-12-26T09:02:25.418Z,7.24
2022-12-26T09:02:56.343Z,7.24
2022-12-26T09:03:27.255Z,7.25
2022-12-26T09:03:58.027Z,7.27
2022-12-26T09:04:28.806Z,7.27
2022-12-26T09:04:59.564Z,7.27
2022-12-26T09:05:30.349Z,7.27
2022-12-26T09:06:05.582Z,7.28
2022-12-26T09:06:33.717Z,7.28
2022-12-26T09:07:04.458Z,7.28
2022-12-26T09:07:35.223Z,7.28
2022-12-26T09:08:05.977Z,7.28
2022-12-26T09:08:37.546Z,7.30
2022-12-26T09:09:08.295Z,7.28
2022-12-26T09:09:39.049Z,7.28
2022-12-26T09:10:09.810Z,7.30
2022-12-26T09:10:40.583Z,7.30
2022-12-26T09:11:11.986Z,7.30
2022-12-26T09:11:42.737Z,7.31
2022-12-26T09:12:13.498Z,7.31
2022-12-26T09:12:44.257Z,7.30
2022-12-26T09:13:15.017Z,7.31
2022-12-26T09:13:45.785Z,7.31
2022-12-26T09:14:16.532Z,7.32
2022-12-26T09:14:50.059Z,7.32
2022-12-26T09:15:18.030Z,7.34
2022-12-26T09:15:48.816Z,7.32
2022-12-26T09:16:19.606Z,7.35
2022-12-26T09:16:51.328Z,7.32
2022-12-26T09:17:23.088Z,7.34
2022-12-26T09:17:54.383Z,7.35
2022-12-26T09:18:25.543Z,7.35
2022-12-26T09:18:56.553Z,7.35
2022-12-26T09:19:27.778Z,7.37
2022-12-26T09:19:58.945Z,7.35
2022-12-26T09:20:29.924Z,7.37
2022-12-26T09:21:00.866Z,7.37
2022-12-26T09:21:31.672Z,7.39
2022-12-26T09:22:02.552Z,7.37
2022-12-26T09:22:35.333Z,7.37
2022-12-26T09:23:06.358Z,7.39
2022-12-26T09:23:37.301Z,7.39
2022-12-26T09:24:08.311Z,7.39
2022-12-26T09:24:39.273Z,7.40
2022-12-26T09:25:10.290Z,7.39
2022-12-26T09:25:41.336Z,7.39
2022-12-26T09:26:12.224Z,7.39
2022-12-26T09:26:43.647Z,7.39
2022-12-26T09:27:14.511Z,7.42
2022-12-26T09:27:45.704Z,7.40
2022-12-26T09:28:16.737Z,7.43
2022-12-26T09:28:47.934Z,7.39
2022-12-26T09:29:19.155Z,7.40
2022-12-26T09:29:50.274Z,7.42
2022-12-26T09:30:21.238Z,7.42
2022-12-26T09:30:52.329Z,7.40
2022-12-26T09:31:23.502Z,7.42
2022-12-26T09:31:54.442Z,7.42
2022-12-26T09:32:25.494Z,7.42
2022-12-26T09:32:56.386Z,7.43
2022-12-26T09:33:27.297Z,7.43
2022-12-26T09:33:58.222Z,7.43
2022-12-26T09:34:29.305Z,7.43
2022-12-26T09:35:00.374Z,7.43
2022-12-26T09:35:31.389Z,7.43
2022-12-26T09:36:05.394Z,7.43
2022-12-26T09:36:35.057Z,7.43
2022-12-26T09:37:05.972Z,7.45
2022-12-26T09:37:37.062Z,7.45
2022-12-26T09:38:07.869Z,7.46
2022-12-26T09:38:38.700Z,7.46
2022-12-26T09:39:09.481Z,7.46
2022-12-26T09:39:40.237Z,7.48
2022-12-26T09:40:11.518Z,7.48
2022-12-26T09:40:42.502Z,7.48
2022-12-26T09:41:13.500Z,7.48
2022-12-26T09:41:44.547Z,7.49
2022-12-26T09:42:15.367Z,7.52
2022-12-26T09:42:46.410Z,7.50
2022-12-26T09:43:17.429Z,7.50
2022-12-26T09:43:50.229Z,7.52
2022-12-26T09:44:21.458Z,7.52
2022-12-26T09:44:52.236Z,7.53
2022-12-26T09:45:23.001Z,7.52
2022-12-26T09:45:53.804Z,7.53
2022-12-26T09:46:24.612Z,7.55
2022-12-26T09:46:55.385Z,7.57
2022-12-26T09:47:27.144Z,7.58
2022-12-26T09:47:57.893Z,7.58
2022-12-26T09:48:28.643Z,7.58
2022-12-26T09:48:59.604Z,7.60
2022-12-26T09:49:30.388Z,7.60
2022-12-26T09:50:01.154Z,7.61
2022-12-26T09:50:31.949Z,7.63
2022-12-26T09:51:02.723Z,7.63
2022-12-26T09:51:33.516Z,7.63
2022-12-26T09:52:04.288Z,7.64
2022-12-26T09:52:35.045Z,7.64
2022-12-26T09:53:05.811Z,7.68
2022-12-26T09:53:36.555Z,7.67
2022-12-26T09:54:07.324Z,7.68
2022-12-26T09:54:38.111Z,7.69
2022-12-26T09:55:08.896Z,7.69
2022-12-26T09:55:39.681Z,7.71
2022-12-26T09:56:13.944Z,7.71
2022-12-26T09:57:15.664Z,7.74
2022-12-26T09:57:46.416Z,7.72
2022-12-26T09:58:17.185Z,7.74
2022-12-26T09:58:47.957Z,7.72
2022-12-26T09:59:18.721Z,7.74
2022-12-26T09:59:49.498Z,7.74
2022-12-26T10:00:20.255Z,7.75
2022-12-26T10:00:51.049Z,7.75
2022-12-26T10:01:21.925Z,7.77
2022-12-26T10:01:52.798Z,7.77
2022-12-26T10:02:23.734Z,7.79
2022-12-26T10:02:54.608Z,7.79
2022-12-26T10:03:25.387Z,7.79
2022-12-26T10:03:56.159Z,7.80
2022-12-26T10:04:29.920Z,7.82
2022-12-26T10:04:58.189Z,7.82
2022-12-26T10:05:28.986Z,7.85
2022-12-26T10:05:59.760Z,7.87
2022-12-26T10:06:30.519Z,7.89
2022-12-26T10:07:01.285Z,7.89
2022-12-26T10:07:32.047Z,7.92
2022-12-26T10:08:02.823Z,7.90
2022-12-26T10:08:33.568Z,7.90
2022-12-26T10:09:04.320Z,7.92
2022-12-26T10:09:35.240Z,7.95
2022-12-26T10:10:06.024Z,7.93
2022-12-26T10:10:36.801Z,7.93
2022-12-26T10:11:07.567Z,7.95
2022-12-26T10:11:38.330Z,7.95
2022-12-26T10:12:09.095Z,7.97
2022-12-26T10:12:39.868Z,7.97
2022-12-26T10:13:10.628Z,7.98
2022-12-26T10:13:41.388Z,7.98
2022-12-26T10:14:15.141Z,7.98
2022-12-26T10:14:44.747Z,7.98
2022-12-26T10:15:15.532Z,7.97
2022-12-26T10:15:46.329Z,7.97
2022-12-26T10:16:17.141Z,7.97
2022-12-26T10:16:47.908Z,7.97
2022-12-26T10:17:18.666Z,7.98
2022-12-26T10:17:49.427Z,7.98
2022-12-26T10:18:20.183Z,7.98
2022-12-26T10:18:50.963Z,7.98
2022-12-26T10:19:21.724Z,7.98
2022-12-26T10:19:52.485Z,8.00
2022-12-26T10:20:23.239Z,8.00
2022-12-26T10:20:54.011Z,8.01
2022-12-26T10:21:24.776Z,8.01
2022-12-26T10:21:55.533Z,8.02
2022-12-26T10:22:26.303Z,8.05
2022-12-26T10:22:57.081Z,8.08
2022-12-26T10:23:27.821Z,8.10
2022-12-26T10:23:58.591Z,8.11
2022-12-26T10:24:29.379Z,8.10
2022-12-26T10:25:00.140Z,8.11
2022-12-26T10:25:33.942Z,8.12
2022-12-26T10:26:01.932Z,8.15
2022-12-26T10:26:32.702Z,8.16
2022-12-26T10:27:03.485Z,8.16
2022-12-26T10:27:34.251Z,8.15
2022-12-26T10:28:05.021Z,8.16
2022-12-26T10:28:35.782Z,8.18
2022-12-26T10:29:06.557Z,8.15
2022-12-26T10:29:37.320Z,8.12
2022-12-26T10:30:08.082Z,8.15
2022-12-26T10:30:39.069Z,8.15
2022-12-26T10:31:09.956Z,8.12
2022-12-26T10:31:40.738Z,8.15
2022-12-26T10:32:11.513Z,8.15
2022-12-26T10:32:42.522Z,8.15
2022-12-26T10:33:13.281Z,8.15
2022-12-26T10:33:44.066Z,8.16
2022-12-26T10:34:14.814Z,8.16
2022-12-26T10:34:45.599Z,8.18
2022-12-26T10:35:16.349Z,8.18
2022-12-26T10:35:47.123Z,8.18
2022-12-26T10:36:17.885Z,8.18
2022-12-26T10:36:48.677Z,8.18
2022-12-26T10:37:19.463Z,8.16
2022-12-26T10:37:50.214Z,8.19
2022-12-26T10:38:25.720Z,8.19
2022-12-26T10:38:53.583Z,8.20
2022-12-26T10:39:24.340Z,8.19
2022-12-26T10:39:55.106Z,8.18
2022-12-26T10:40:25.881Z,8.18
2022-12-26T10:40:56.644Z,8.16
2022-12-26T10:41:27.422Z,8.16
2022-12-26T10:41:58.204Z,8.16
2022-12-26T10:42:28.957Z,8.16
2022-12-26T10:42:59.719Z,8.18
2022-12-26T10:43:31.758Z,8.16
2022-12-26T10:44:02.535Z,8.16
2022-12-26T10:44:33.293Z,8.15
2022-12-26T10:45:04.055Z,8.18
2022-12-26T10:45:34.835Z,8.18
2022-12-26T10:46:05.598Z,8.18
2022-12-26T10:46:36.469Z,8.18
2022-12-26T10:47:07.279Z,8.18
2022-12-26T10:47:38.040Z,8.18
2022-12-26T10:48:08.802Z,8.18
2022-12-26T10:48:39.574Z,8.20
2022-12-26T10:49:10.336Z,8.20
2022-12-26T10:49:41.659Z,8.19
2022-12-26T10:50:12.428Z,8.18
2022-12-26T10:50:43.237Z,8.22
2022-12-26T10:51:14.000Z,8.23
2022-12-26T10:51:44.756Z,8.26
2022-12-26T10:52:15.530Z,8.26
2022-12-26T10:52:46.290Z,8.26
2022-12-26T10:53:17.068Z,8.28
2022-12-26T10:53:47.846Z,8.29
2022-12-26T10:54:18.637Z,8.29
2022-12-26T10:54:49.409Z,8.30
2022-12-26T10:55:28.177Z,8.30
2022-12-26T10:55:52.813Z,8.33
2022-12-26T10:56:23.579Z,8.33
2022-12-26T10:56:54.336Z,8.36
2022-12-26T10:57:25.097Z,8.36
2022-12-26T10:57:55.859Z,8.36
2022-12-26T10:58:27.068Z,8.37
2022-12-26T10:58:57.849Z,8.36
2022-12-26T10:59:28.668Z,8.36
2022-12-26T10:59:59.500Z,8.36
2022-12-26T11:00:30.279Z,8.38
2022-12-26T11:01:01.060Z,8.38
2022-12-26T11:01:31.946Z,8.40
2022-12-26T11:02:06.946Z,8.41
2022-12-26T11:02:35.168Z,8.43
2022-12-26T11:03:06.267Z,8.40
2022-12-26T11:03:37.138Z,8.41
2022-12-26T11:04:07.926Z,8.41
2022-12-26T11:05:11.233Z,8.43
2022-12-26T11:05:21.875Z,8.44
2022-12-26T11:06:16.554Z,8.45
2022-12-26T11:06:47.336Z,8.45
2022-12-26T11:07:18.109Z,8.45
2022-12-26T11:07:48.893Z,8.47
2022-12-26T11:08:19.682Z,8.47
2022-12-26T11:08:50.454Z,8.47
2022-12-26T11:09:21.229Z,8.47
2022-12-26T11:09:52.009Z,8.47
2022-12-26T11:10:22.751Z,8.47
2022-12-26T11:10:53.529Z,8.45
2022-12-26T11:11:24.289Z,8.44
2022-12-26T11:11:55.069Z,8.45
2022-12-26T11:12:25.831Z,8.44
2022-12-26T11:12:56.605Z,8.44
2022-12-26T11:13:27.351Z,8.44
2022-12-26T11:14:02.229Z,8.44
2022-12-26T11:14:33.782Z,8.43
2022-12-26T11:15:02.127Z,8.43
2022-12-26T11:15:32.922Z,8.43
2022-12-26T11:16:03.756Z,8.43
2022-12-26T11:16:34.622Z,8.43
2022-12-26T11:17:05.423Z,8.44
2022-12-26T11:17:36.193Z,8.41
2022-12-26T11:18:09.882Z,8.43
2022-12-26T11:18:37.584Z,8.43
2022-12-26T11:19:08.354Z,8.43
2022-12-26T11:19:39.104Z,8.43
2022-12-26T11:20:09.867Z,8.41
2022-12-26T11:20:40.632Z,8.41
2022-12-26T11:21:12.979Z,8.43
2022-12-26T11:21:43.861Z,8.41
2022-12-26T11:22:14.627Z,8.44
2022-12-26T11:22:45.383Z,8.44
2022-12-26T11:23:16.140Z,8.44
2022-12-26T11:23:46.906Z,8.44
2022-12-26T11:24:17.675Z,8.44
2022-12-26T11:24:48.439Z,8.43
2022-12-26T11:25:19.219Z,8.44
2022-12-26T11:25:49.982Z,8.43
2022-12-26T11:26:20.751Z,8.44
2022-12-26T11:26:51.506Z,8.44
2022-12-26T11:27:22.274Z,8.44
2022-12-26T11:27:53.033Z,8.44
2022-12-26T11:28:23.832Z,8.44
2022-12-26T11:28:54.591Z,8.44
2022-12-26T11:29:25.359Z,8.44
2022-12-26T11:29:56.104Z,8.44
2022-12-26T11:30:27.202Z,8.44
2022-12-26T11:30:58.017Z,8.44
2022-12-26T11:31:28.807Z,8.45
2022-12-26T11:31:59.555Z,8.45
2022-12-26T11:32:30.339Z,8.44
2022-12-26T11:33:01.130Z,8.44
2022-12-26T11:33:31.888Z,8.47
2022-12-26T11:34:02.648Z,8.45
2022-12-26T11:34:33.398Z,8.45
2022-12-26T11:35:04.156Z,8.45
2022-12-26T11:35:34.928Z,8.45
2022-12-26T11:36:05.716Z,8.45
2022-12-26T11:36:36.511Z,8.45
2022-12-26T11:37:07.303Z,8.45
2022-12-26T11:37:38.090Z,8.45
2022-12-26T11:38:08.848Z,8.45
2022-12-26T11:38:44.960Z,8.47
2022-12-26T11:39:12.216Z,8.47
2022-12-26T11:39:43.005Z,8.44
2022-12-26T11:40:13.756Z,8.43
2022-12-26T11:40:44.526Z,8.43
2022-12-26T11:41:15.319Z,8.43
2022-12-26T11:41:46.096Z,8.44
2022-12-26T11:42:16.860Z,8.44
2022-12-26T11:42:47.608Z,8.45
2022-12-26T11:43:18.377Z,8.44
2022-12-26T11:43:49.134Z,8.44
2022-12-26T11:44:19.896Z,8.45
2022-12-26T11:44:50.658Z,8.44
2022-12-26T11:45:21.440Z,8.44
2022-12-26T11:45:52.208Z,8.44
2022-12-26T11:46:23.975Z,8.44
2022-12-26T11:46:54.800Z,8.44
2022-12-26T11:47:25.603Z,8.45
2022-12-26T11:47:56.358Z,8.47
2022-12-26T11:48:27.218Z,8.47
2022-12-26T11:48:57.981Z,8.47
2022-12-26T11:49:28.752Z,8.47
2022-12-26T11:49:59.509Z,8.45
2022-12-26T11:50:30.277Z,8.45
2022-12-26T11:51:01.063Z,8.45
2022-12-26T11:51:31.818Z,8.44
2022-12-26T11:52:02.603Z,8.45
2022-12-26T11:52:33.438Z,8.44
2022-12-26T11:53:04.212Z,8.45
2022-12-26T11:53:34.986Z,8.44
2022-12-26T11:54:05.746Z,8.44
2022-12-26T11:54:36.508Z,8.43
2022-12-26T11:55:07.262Z,8.41
2022-12-26T11:55:38.083Z,8.41
2022-12-26T11:56:08.867Z,8.41
2022-12-26T11:56:39.627Z,8.40
2022-12-26T11:57:10.391Z,8.40
2022-12-26T11:57:41.162Z,8.40
2022-12-26T11:58:12.263Z,8.38
2022-12-26T11:58:43.019Z,8.38
2022-12-26T11:59:13.772Z,8.40
2022-12-26T11:59:44.560Z,8.40
2022-12-26T12:00:15.354Z,8.40
2022-12-26T12:00:46.141Z,8.41
2022-12-26T12:01:16.958Z,8.40
2022-12-26T12:01:47.794Z,8.40
2022-12-26T12:02:18.629Z,8.37
2022-12-26T12:02:49.540Z,8.38
2022-12-26T12:03:20.425Z,8.37
2022-12-26T12:03:51.268Z,8.38
2022-12-26T12:04:22.061Z,8.37
2022-12-26T12:04:52.837Z,8.37
2022-12-26T12:05:23.606Z,8.36
2022-12-26T12:05:54.377Z,8.34
2022-12-26T12:06:25.143Z,8.34
2022-12-26T12:06:55.913Z,8.36
2022-12-26T12:07:26.669Z,8.34
2022-12-26T12:07:57.431Z,8.36
2022-12-26T12:08:28.182Z,8.36
2022-12-26T12:09:05.420Z,8.34
2022-12-26T12:09:31.563Z,8.33
2022-12-26T12:10:02.332Z,8.33
2022-12-26T12:10:40.198Z,8.33
2022-12-26T12:11:08.691Z,8.33
2022-12-26T12:11:42.417Z,8.33
2022-12-26T12:12:08.839Z,8.30
2022-12-26T12:12:41.338Z,8.29
2022-12-26T12:13:15.173Z,8.28
2022-12-26T12:13:43.558Z,8.28
2022-12-26T12:14:14.852Z,8.26
2022-12-26T12:14:52.486Z,8.25
2022-12-26T12:15:16.814Z,8.25
2022-12-26T12:15:48.424Z,8.25
2022-12-26T12:16:19.456Z,8.23
2022-12-26T12:16:50.887Z,8.25
2022-12-26T12:17:21.880Z,8.22
2022-12-26T12:17:53.135Z,8.20
2022-12-26T12:18:24.161Z,8.22
2022-12-26T12:18:55.235Z,8.20
2022-12-26T12:19:27.194Z,8.19
2022-12-26T12:19:58.762Z,8.19
2022-12-26T12:20:29.872Z,8.19
2022-12-26T12:21:01.210Z,8.20
2022-12-26T12:21:33.603Z,8.20
2022-12-26T12:22:04.722Z,8.20
2022-12-26T12:22:36.569Z,8.20
2022-12-26T12:23:07.950Z,8.19
2022-12-26T12:23:39.593Z,8.19
2022-12-26T12:24:10.354Z,8.19
2022-12-26T12:24:41.118Z,8.20
2022-12-26T12:25:12.334Z,8.20
2022-12-26T12:25:43.096Z,8.20
2022-12-26T12:26:13.851Z,8.20
2022-12-26T12:26:47.368Z,8.20
2022-12-26T12:27:17.231Z,8.20
2022-12-26T12:27:47.995Z,8.20
2022-12-26T12:28:18.775Z,8.19
2022-12-26T12:28:49.540Z,8.20
2022-12-26T12:29:20.308Z,8.19
2022-12-26T12:29:51.068Z,8.20
2022-12-26T12:30:21.826Z,8.19
2022-12-26T12:30:52.586Z,8.20
2022-12-26T12:31:23.423Z,8.22
2022-12-26T12:31:54.249Z,8.20
2022-12-26T12:32:25.030Z,8.19
2022-12-26T12:32:57.312Z,8.19
2022-12-26T12:33:28.279Z,8.20
2022-12-26T12:33:59.039Z,8.22
2022-12-26T12:34:30.007Z,8.20
2022-12-26T12:35:04.388Z,8.20
2022-12-26T12:35:32.804Z,8.20
2022-12-26T12:36:06.172Z,8.19
2022-12-26T12:36:36.902Z,8.19
2022-12-26T12:37:06.455Z,8.20
2022-12-26T12:37:40.533Z,8.20
2022-12-26T12:38:09.556Z,8.20
2022-12-26T12:38:40.892Z,8.20
2022-12-26T12:39:13.531Z,8.19
2022-12-26T12:39:44.328Z,8.20
2022-12-26T12:40:15.090Z,8.20
2022-12-26T12:40:45.867Z,8.19
2022-12-26T12:41:16.628Z,8.19
2022-12-26T12:41:47.411Z,8.19
2022-12-26T12:42:18.156Z,8.20
2022-12-26T12:42:48.917Z,8.20
2022-12-26T12:43:19.699Z,8.20
2022-12-26T12:43:50.460Z,8.18
2022-12-26T12:44:21.222Z,8.19
2022-12-26T12:44:56.669Z,8.19
2022-12-26T12:45:24.660Z,8.19
2022-12-26T12:45:55.500Z,8.20
2022-12-26T12:46:26.304Z,8.20
2022-12-26T12:46:57.070Z,8.20
2022-12-26T12:47:27.842Z,8.20
2022-12-26T12:47:58.619Z,8.19
2022-12-26T12:48:30.585Z,8.19
2022-12-26T12:49:02.836Z,8.18
2022-12-26T12:49:34.585Z,8.18
2022-12-26T12:50:05.983Z,8.18
2022-12-26T12:50:38.605Z,8.16
2022-12-26T12:51:09.785Z,8.18
2022-12-26T12:51:41.497Z,8.18
2022-12-26T12:52:13.148Z,8.18
2022-12-26T12:52:44.425Z,8.15
2022-12-26T12:53:15.494Z,8.15
2022-12-26T12:53:46.278Z,8.12
2022-12-26T12:54:17.044Z,8.12
2022-12-26T12:54:48.431Z,8.11
2022-12-26T12:55:20.499Z,8.12
2022-12-26T12:55:52.974Z,8.15
2022-12-26T12:56:26.891Z,8.12
2022-12-26T12:56:56.823Z,8.10
2022-12-26T12:57:28.699Z,8.12
2022-12-26T12:57:59.846Z,8.12
2022-12-26T12:58:32.153Z,8.12
2022-12-26T12:59:03.316Z,8.11
2022-12-26T12:59:34.101Z,8.12
2022-12-26T13:00:04.872Z,8.11
2022-12-26T13:00:35.649Z,8.10
2022-12-26T13:01:06.509Z,8.10
2022-12-26T13:01:37.436Z,8.11
2022-12-26T13:02:11.091Z,8.10
2022-12-26T13:02:40.632Z,8.07
2022-12-26T13:03:11.519Z,8.08
2022-12-26T13:03:42.279Z,8.08
2022-12-26T13:04:13.053Z,8.07
2022-12-26T13:04:43.822Z,8.07
2022-12-26T13:05:14.584Z,8.07
2022-12-26T13:05:45.344Z,8.07
2022-12-26T13:06:16.113Z,8.08
2022-12-26T13:06:46.884Z,8.05
2022-12-26T13:07:17.649Z,8.05
2022-12-26T13:07:48.440Z,8.04
2022-12-26T13:08:19.184Z,8.01
2022-12-26T13:08:49.944Z,8.02
2022-12-26T13:09:20.701Z,8.00
2022-12-26T13:09:51.463Z,7.98
2022-12-26T13:10:22.235Z,7.98
2022-12-26T13:10:53.000Z,8.00
2022-12-26T13:11:23.755Z,7.97
2022-12-26T13:11:54.532Z,7.95
2022-12-26T13:12:25.295Z,7.92
2022-12-26T13:12:56.073Z,7.90
2022-12-26T13:13:26.840Z,7.86
2022-12-26T13:13:57.616Z,7.85
2022-12-26T13:14:28.371Z,7.82
2022-12-26T13:14:59.126Z,7.80
2022-12-26T13:15:29.895Z,7.77
2022-12-26T13:16:00.655Z,7.79
2022-12-26T13:16:31.451Z,7.77
2022-12-26T13:17:02.265Z,7.77
2022-12-26T13:17:33.051Z,7.74
2022-12-26T13:18:03.797Z,7.75
2022-12-26T13:18:34.587Z,7.72
2022-12-26T13:19:05.356Z,7.74
2022-12-26T13:19:36.117Z,7.71
2022-12-26T13:20:06.882Z,7.72
2022-12-26T13:20:37.639Z,7.69
2022-12-26T13:21:08.385Z,7.68
2022-12-26T13:21:39.161Z,7.67
2022-12-26T13:22:09.909Z,7.64
2022-12-26T13:22:40.655Z,7.63
2022-12-26T13:23:11.414Z,7.63
2022-12-26T13:23:42.186Z,7.61
2022-12-26T13:24:12.957Z,7.61
2022-12-26T13:24:43.706Z,7.60
2022-12-26T13:25:14.477Z,7.60
2022-12-26T13:25:45.262Z,7.58